Main page
METAR-TAF:

METAR-TAF

Airports :

Multan International Airport

Multan, Pakistan

latitude: 30-12-12N, longitude: 71-25-09E, elevation: 122 m

Current weather observation

The report was made 1 hour and 0 minutes ago, at 03:30 UTC
Wind 4 kt from the East
Temperature 28°C
Humidity 74%
Pressure 1002 hPa
Visibility: 4000 m
smoke

METAR: OPMT 250330Z 09004KT 4000 FU NSC 28/23 Q1002 NOSIG

Time: 09:30 (04:30 UTC)

Forecast

The report was made 6 hours and 45 minutes ago, at 21:45 UTC
Forecast valid from 25 at 00 UTC to 25 at 18 UTC
Wind 10 kt from the South
Visibility: 4000 m
Few clouds at a height of 12000 ft
smoke
Probability 30% :
Temporary
from 25 at 00 UTC to 25 at 04 UTC
Wind 5 kt from the Southeast
Visibility: 2500 m
smoke

TAF: OPMT 242145Z 2500/2518 18010KT 4000 FU FEW120 TN26/2501Z TX36/2510Z PROB30 TEMPO 2500/2504 13005KT 2500 FU NSC

Weather observations and forecasts of more than 4000 airports (METAR and TAF reports).

The available stations are represented by yellow and red dots on the map.

Hover mouse over dot to see the name of the station.

Then click to see weather observations and forecasts.

To change the map : click on the green buttons with a black cross to zoom in, on the green button with a dash to zoom out, or on the green arrows for adjacent maps.


METAR-TAF: